sensor_id;sensor_type;location;lat;lon;timestamp;temperature;humidity
68215;DHT22;55036;52.138;5.236;2023-05-07T00:01:22;16.40;87.80
68215;DHT22;55036;52.138;5.236;2023-05-07T00:03:49;16.40;87.90
68215;DHT22;55036;52.138;5.236;2023-05-07T00:06:16;16.40;88.10
68215;DHT22;55036;52.138;5.236;2023-05-07T00:08:43;16.30;89.30
68215;DHT22;55036;52.138;5.236;2023-05-07T00:11:10;16.20;89.60
68215;DHT22;55036;52.138;5.236;2023-05-07T00:13:37;16.20;89.40
68215;DHT22;55036;52.138;5.236;2023-05-07T00:46:41;16.20;89.90
68215;DHT22;55036;52.138;5.236;2023-05-07T00:49:08;16.20;89.70
68215;DHT22;55036;52.138;5.236;2023-05-07T00:51:35;16.20;89.70
68215;DHT22;55036;52.138;5.236;2023-05-07T00:54:02;16.20;90.00
68215;DHT22;55036;52.138;5.236;2023-05-07T00:56:30;16.20;90.10
68215;DHT22;55036;52.138;5.236;2023-05-07T00:58:57;16.20;90.00
68215;DHT22;55036;52.138;5.236;2023-05-07T01:01:24;16.30;89.80
68215;DHT22;55036;52.138;5.236;2023-05-07T01:03:52;16.30;89.70
68215;DHT22;55036;52.138;5.236;2023-05-07T01:06:21;16.30;89.80
68215;DHT22;55036;52.138;5.236;2023-05-07T01:08:49;16.30;89.90
68215;DHT22;55036;52.138;5.236;2023-05-07T01:11:17;16.30;89.80
68215;DHT22;55036;52.138;5.236;2023-05-07T01:13:46;16.30;89.70
68215;DHT22;55036;52.138;5.236;2023-05-07T01:16:13;16.30;89.80
68215;DHT22;55036;52.138;5.236;2023-05-07T01:18:40;16.30;89.60
68215;DHT22;55036;52.138;5.236;2023-05-07T01:21:11;16.30;89.60
68215;DHT22;55036;52.138;5.236;2023-05-07T01:23:38;16.30;89.50
68215;DHT22;55036;52.138;5.236;2023-05-07T01:26:06;16.30;89.60
68215;DHT22;55036;52.138;5.236;2023-05-07T01:28:32;16.30;89.90
68215;DHT22;55036;52.138;5.236;2023-05-07T01:31:03;16.30;89.90
68215;DHT22;55036;52.138;5.236;2023-05-07T01:33:33;16.30;89.90
68215;DHT22;55036;52.138;5.236;2023-05-07T01:36:01;16.30;90.00
68215;DHT22;55036;52.138;5.236;2023-05-07T01:38:32;16.40;90.00
68215;DHT22;55036;52.138;5.236;2023-05-07T01:40:59;16.40;90.00
68215;DHT22;55036;52.138;5.236;2023-05-07T01:43:26;16.30;89.70
68215;DHT22;55036;52.138;5.236;2023-05-07T01:45:53;16.30;89.70
68215;DHT22;55036;52.138;5.236;2023-05-07T01:48:20;16.30;90.00
68215;DHT22;55036;52.138;5.236;2023-05-07T01:50:48;16.30;90.00
68215;DHT22;55036;52.138;5.236;2023-05-07T01:53:15;16.30;90.00
68215;DHT22;55036;52.138;5.236;2023-05-07T01:55:41;16.30;90.10
68215;DHT22;55036;52.138;5.236;2023-05-07T01:58:08;16.30;90.10
68215;DHT22;55036;52.138;5.236;2023-05-07T02:00:35;16.30;90.10
68215;DHT22;55036;52.138;5.236;2023-05-07T02:03:01;16.30;90.00
68215;DHT22;55036;52.138;5.236;2023-05-07T02:05:28;16.20;89.80
68215;DHT22;55036;52.138;5.236;2023-05-07T02:07:55;16.10;90.20
68215;DHT22;55036;52.138;5.236;2023-05-07T02:10:22;16.10;90.20
68215;DHT22;55036;52.138;5.236;2023-05-07T02:12:48;16.10;90.00
68215;DHT22;55036;52.138;5.236;2023-05-07T02:15:15;15.90;90.60
68215;DHT22;55036;52.138;5.236;2023-05-07T02:17:59;15.90;90.70
68215;DHT22;55036;52.138;5.236;2023-05-07T02:20:26;16.00;90.70
68215;DHT22;55036;52.138;5.236;2023-05-07T02:22:53;16.00;90.80
68215;DHT22;55036;52.138;5.236;2023-05-07T02:25:20;16.10;90.80
68215;DHT22;55036;52.138;5.236;2023-05-07T02:27:46;16.10;90.70
68215;DHT22;55036;52.138;5.236;2023-05-07T02:30:14;16.00;91.00
68215;DHT22;55036;52.138;5.236;2023-05-07T02:32:41;15.90;91.10
68215;DHT22;55036;52.138;5.236;2023-05-07T02:35:07;16.00;91.00
68215;DHT22;55036;52.138;5.236;2023-05-07T02:37:34;16.00;90.80
68215;DHT22;55036;52.138;5.236;2023-05-07T02:40:01;16.00;91.00
68215;DHT22;55036;52.138;5.236;2023-05-07T02:42:29;16.00;90.90
68215;DHT22;55036;52.138;5.236;2023-05-07T02:44:56;16.10;90.90
68215;DHT22;55036;52.138;5.236;2023-05-07T02:47:23;16.00;90.80
68215;DHT22;55036;52.138;5.236;2023-05-07T02:49:49;16.10;90.90
68215;DHT22;55036;52.138;5.236;2023-05-07T02:52:16;16.10;90.90
68215;DHT22;55036;52.138;5.236;2023-05-07T02:54:43;16.10;91.00
68215;DHT22;55036;52.138;5.236;2023-05-07T02:57:09;16.20;90.90
68215;DHT22;55036;52.138;5.236;2023-05-07T02:59:36;16.20;90.80
68215;DHT22;55036;52.138;5.236;2023-05-07T03:02:03;16.20;90.70
68215;DHT22;55036;52.138;5.236;2023-05-07T03:04:29;16.10;90.80
68215;DHT22;55036;52.138;5.236;2023-05-07T03:06:56;16.20;90.90
68215;DHT22;55036;52.138;5.236;2023-05-07T03:09:23;16.20;90.90
68215;DHT22;55036;52.138;5.236;2023-05-07T03:11:50;16.00;90.90
68215;DHT22;55036;52.138;5.236;2023-05-07T03:14:16;16.00;90.80
68215;DHT22;55036;52.138;5.236;2023-05-07T03:16:43;16.00;90.80
68215;DHT22;55036;52.138;5.236;2023-05-07T03:19:10;16.00;90.80
68215;DHT22;55036;52.138;5.236;2023-05-07T03:21:36;16.00;90.80
68215;DHT22;55036;52.138;5.236;2023-05-07T03:24:03;16.00;90.70
68215;DHT22;55036;52.138;5.236;2023-05-07T03:26:30;15.90;90.90
68215;DHT22;55036;52.138;5.236;2023-05-07T03:28:57;15.80;91.30
68215;DHT22;55036;52.138;5.236;2023-05-07T03:31:23;15.70;91.40
68215;DHT22;55036;52.138;5.236;2023-05-07T03:33:52;15.70;91.50
68215;DHT22;55036;52.138;5.236;2023-05-07T03:36:19;15.70;91.40
68215;DHT22;55036;52.138;5.236;2023-05-07T03:38:46;15.70;91.40
68215;DHT22;55036;52.138;5.236;2023-05-07T03:41:12;15.70;91.40
68215;DHT22;55036;52.138;5.236;2023-05-07T03:43:39;15.80;91.30
68215;DHT22;55036;52.138;5.236;2023-05-07T03:46:06;15.80;91.20
68215;DHT22;55036;52.138;5.236;2023-05-07T03:48:33;15.80;91.20
68215;DHT22;55036;52.138;5.236;2023-05-07T03:50:59;15.80;91.20
68215;DHT22;55036;52.138;5.236;2023-05-07T03:53:26;15.80;91.10
68215;DHT22;55036;52.138;5.236;2023-05-07T03:55:53;15.80;91.10
68215;DHT22;55036;52.138;5.236;2023-05-07T03:58:20;15.80;91.20
68215;DHT22;55036;52.138;5.236;2023-05-07T04:00:46;15.70;91.10
68215;DHT22;55036;52.138;5.236;2023-05-07T04:03:13;15.80;91.30
68215;DHT22;55036;52.138;5.236;2023-05-07T04:05:40;15.80;91.20
68215;DHT22;55036;52.138;5.236;2023-05-07T04:08:07;15.70;91.00
68215;DHT22;55036;52.138;5.236;2023-05-07T04:10:34;15.70;91.20
68215;DHT22;55036;52.138;5.236;2023-05-07T04:13:00;15.70;91.30
68215;DHT22;55036;52.138;5.236;2023-05-07T04:15:27;15.70;91.40
68215;DHT22;55036;52.138;5.236;2023-05-07T04:17:54;15.60;91.60
68215;DHT22;55036;52.138;5.236;2023-05-07T04:20:21;15.50;91.90
68215;DHT22;55036;52.138;5.236;2023-05-07T04:22:47;15.50;92.10
68215;DHT22;55036;52.138;5.236;2023-05-07T04:25:15;15.50;92.00
68215;DHT22;55036;52.138;5.236;2023-05-07T04:27:42;15.60;91.90
68215;DHT22;55036;52.138;5.236;2023-05-07T04:30:09;15.60;91.90
68215;DHT22;55036;52.138;5.236;2023-05-07T04:32:37;15.50;92.20
68215;DHT22;55036;52.138;5.236;2023-05-07T04:35:04;15.40;92.10
68215;DHT22;55036;52.138;5.236;2023-05-07T04:37:32;15.50;92.10
68215;DHT22;55036;52.138;5.236;2023-05-07T04:39:58;15.50;91.90
68215;DHT22;55036;52.138;5.236;2023-05-07T04:42:26;15.40;92.20
68215;DHT22;55036;52.138;5.236;2023-05-07T04:44:53;15.50;92.20
68215;DHT22;55036;52.138;5.236;2023-05-07T04:47:20;15.60;92.10
68215;DHT22;55036;52.138;5.236;2023-05-07T04:49:47;15.50;92.50
68215;DHT22;55036;52.138;5.236;2023-05-07T04:52:13;15.50;92.30
68215;DHT22;55036;52.138;5.236;2023-05-07T04:54:40;15.70;92.30
68215;DHT22;55036;52.138;5.236;2023-05-07T04:57:07;15.60;92.30
68215;DHT22;55036;52.138;5.236;2023-05-07T04:59:33;15.60;92.60
68215;DHT22;55036;52.138;5.236;2023-05-07T05:02:00;15.70;92.40
68215;DHT22;55036;52.138;5.236;2023-05-07T05:04:27;15.70;92.30
68215;DHT22;55036;52.138;5.236;2023-05-07T05:06:54;15.60;92.40
68215;DHT22;55036;52.138;5.236;2023-05-07T05:09:21;15.60;92.50
68215;DHT22;55036;52.138;5.236;2023-05-07T05:11:47;15.50;92.70
68215;DHT22;55036;52.138;5.236;2023-05-07T05:14:14;15.60;92.60
68215;DHT22;55036;52.138;5.236;2023-05-07T05:16:41;15.50;93.00
68215;DHT22;55036;52.138;5.236;2023-05-07T05:19:07;15.50;93.10
68215;DHT22;55036;52.138;5.236;2023-05-07T05:21:34;15.60;92.80
68215;DHT22;55036;52.138;5.236;2023-05-07T05:24:01;15.50;93.00
68215;DHT22;55036;52.138;5.236;2023-05-07T05:26:27;15.50;93.30
68215;DHT22;55036;52.138;5.236;2023-05-07T05:28:54;15.50;93.20
68215;DHT22;55036;52.138;5.236;2023-05-07T05:31:21;15.60;93.10
68215;DHT22;55036;52.138;5.236;2023-05-07T05:33:47;15.50;93.20
68215;DHT22;55036;52.138;5.236;2023-05-07T05:36:14;15.60;93.00
68215;DHT22;55036;52.138;5.236;2023-05-07T05:38:41;15.70;92.90
68215;DHT22;55036;52.138;5.236;2023-05-07T05:41:08;15.80;92.80
68215;DHT22;55036;52.138;5.236;2023-05-07T05:43:34;15.70;92.80
68215;DHT22;55036;52.138;5.236;2023-05-07T05:46:01;15.70;93.00
68215;DHT22;55036;52.138;5.236;2023-05-07T05:48:29;15.70;93.20
68215;DHT22;55036;52.138;5.236;2023-05-07T05:50:56;15.80;93.00
68215;DHT22;55036;52.138;5.236;2023-05-07T05:53:22;15.90;92.90
68215;DHT22;55036;52.138;5.236;2023-05-07T05:55:49;15.90;92.80
68215;DHT22;55036;52.138;5.236;2023-05-07T05:58:16;16.00;92.80
68215;DHT22;55036;52.138;5.236;2023-05-07T06:00:44;16.10;92.60
68215;DHT22;55036;52.138;5.236;2023-05-07T06:03:11;16.00;92.60
68215;DHT22;55036;52.138;5.236;2023-05-07T06:05:40;15.70;93.60
68215;DHT22;55036;52.138;5.236;2023-05-07T06:08:06;15.70;93.70
68215;DHT22;55036;52.138;5.236;2023-05-07T06:10:33;15.70;93.40
68215;DHT22;55036;52.138;5.236;2023-05-07T06:13:00;15.80;93.30
68215;DHT22;55036;52.138;5.236;2023-05-07T06:15:26;15.90;93.20
68215;DHT22;55036;52.138;5.236;2023-05-07T06:17:53;15.80;93.30
68215;DHT22;55036;52.138;5.236;2023-05-07T06:20:22;15.80;93.50
68215;DHT22;55036;52.138;5.236;2023-05-07T06:22:49;15.80;93.50
68215;DHT22;55036;52.138;5.236;2023-05-07T06:25:16;15.80;93.60
68215;DHT22;55036;52.138;5.236;2023-05-07T06:27:42;15.90;93.40
68215;DHT22;55036;52.138;5.236;2023-05-07T06:30:09;16.00;93.40
68215;DHT22;55036;52.138;5.236;2023-05-07T06:32:37;16.00;93.30
68215;DHT22;55036;52.138;5.236;2023-05-07T06:35:04;15.80;93.80
68215;DHT22;55036;52.138;5.236;2023-05-07T06:37:30;15.80;94.10
68215;DHT22;55036;52.138;5.236;2023-05-07T06:39:57;15.90;94.00
68215;DHT22;55036;52.138;5.236;2023-05-07T06:42:25;15.90;94.10
68215;DHT22;55036;52.138;5.236;2023-05-07T06:44:53;16.00;93.80
68215;DHT22;55036;52.138;5.236;2023-05-07T06:47:19;16.20;93.60
68215;DHT22;55036;52.138;5.236;2023-05-07T06:49:46;16.20;93.30
68215;DHT22;55036;52.138;5.236;2023-05-07T06:52:13;16.20;93.70
68215;DHT22;55036;52.138;5.236;2023-05-07T06:54:39;16.30;93.70
68215;DHT22;55036;52.138;5.236;2023-05-07T06:57:06;16.30;93.20
68215;DHT22;55036;52.138;5.236;2023-05-07T06:59:33;16.40;93.20
68215;DHT22;55036;52.138;5.236;2023-05-07T07:02:00;16.50;93.50
68215;DHT22;55036;52.138;5.236;2023-05-07T07:04:26;16.50;93.60
68215;DHT22;55036;52.138;5.236;2023-05-07T07:06:54;16.60;93.50
68215;DHT22;55036;52.138;5.236;2023-05-07T07:09:23;16.70;93.20
68215;DHT22;55036;52.138;5.236;2023-05-07T07:11:49;16.70;92.80
68215;DHT22;55036;52.138;5.236;2023-05-07T07:14:16;16.70;93.20
68215;DHT22;55036;52.138;5.236;2023-05-07T07:16:43;16.80;92.70
68215;DHT22;55036;52.138;5.236;2023-05-07T07:19:09;16.80;92.80
68215;DHT22;55036;52.138;5.236;2023-05-07T07:21:36;16.70;93.20
68215;DHT22;55036;52.138;5.236;2023-05-07T07:24:03;16.90;93.00
68215;DHT22;55036;52.138;5.236;2023-05-07T07:26:29;17.00;93.00
68215;DHT22;55036;52.138;5.236;2023-05-07T07:28:56;17.20;92.90
68215;DHT22;55036;52.138;5.236;2023-05-07T07:31:23;17.30;92.20
68215;DHT22;55036;52.138;5.236;2023-05-07T07:33:50;17.30;92.30
68215;DHT22;55036;52.138;5.236;2023-05-07T07:36:18;17.30;92.20
68215;DHT22;55036;52.138;5.236;2023-05-07T07:38:45;17.60;92.20
68215;DHT22;55036;52.138;5.236;2023-05-07T07:41:12;17.70;92.10
68215;DHT22;55036;52.138;5.236;2023-05-07T07:43:39;17.90;91.10
68215;DHT22;55036;52.138;5.236;2023-05-07T07:46:05;17.90;91.70
68215;DHT22;55036;52.138;5.236;2023-05-07T07:48:33;17.80;90.00
68215;DHT22;55036;52.138;5.236;2023-05-07T07:51:00;17.70;90.40
68215;DHT22;55036;52.138;5.236;2023-05-07T07:53:30;17.50;90.50
68215;DHT22;55036;52.138;5.236;2023-05-07T07:55:57;17.40;90.80
68215;DHT22;55036;52.138;5.236;2023-05-07T07:58:25;17.40;90.90
68215;DHT22;55036;52.138;5.236;2023-05-07T08:00:52;17.50;90.80
68215;DHT22;55036;52.138;5.236;2023-05-07T08:03:18;17.60;90.90
68215;DHT22;55036;52.138;5.236;2023-05-07T08:05:46;17.70;90.80
68215;DHT22;55036;52.138;5.236;2023-05-07T08:08:12;17.80;90.50
68215;DHT22;55036;52.138;5.236;2023-05-07T08:10:39;17.90;90.60
68215;DHT22;55036;52.138;5.236;2023-05-07T08:13:06;18.00;90.60
68215;DHT22;55036;52.138;5.236;2023-05-07T08:15:33;18.10;90.40
68215;DHT22;55036;52.138;5.236;2023-05-07T08:18:01;18.20;90.20
68215;DHT22;55036;52.138;5.236;2023-05-07T08:20:29;18.00;90.20
68215;DHT22;55036;52.138;5.236;2023-05-07T08:22:56;18.10;90.50
68215;DHT22;55036;52.138;5.236;2023-05-07T08:25:23;18.20;90.20
68215;DHT22;55036;52.138;5.236;2023-05-07T08:27:49;18.20;87.50
68215;DHT22;55036;52.138;5.236;2023-05-07T08:30:16;17.90;90.40
68215;DHT22;55036;52.138;5.236;2023-05-07T08:32:43;17.90;89.30
68215;DHT22;55036;52.138;5.236;2023-05-07T08:35:09;17.80;90.70
68215;DHT22;55036;52.138;5.236;2023-05-07T08:37:36;18.00;90.70
68215;DHT22;55036;52.138;5.236;2023-05-07T08:40:03;18.00;90.80
68215;DHT22;55036;52.138;5.236;2023-05-07T08:42:35;18.10;90.30
68215;DHT22;55036;52.138;5.236;2023-05-07T08:45:05;18.20;90.60
68215;DHT22;55036;52.138;5.236;2023-05-07T08:47:39;18.30;90.90
68215;DHT22;55036;52.138;5.236;2023-05-07T08:50:07;18.30;90.50
68215;DHT22;55036;52.138;5.236;2023-05-07T08:52:33;18.20;90.90
68215;DHT22;55036;52.138;5.236;2023-05-07T08:55:02;18.30;90.00
68215;DHT22;55036;52.138;5.236;2023-05-07T08:57:29;18.20;90.70
68215;DHT22;55036;52.138;5.236;2023-05-07T08:59:56;18.30;90.60
68215;DHT22;55036;52.138;5.236;2023-05-07T09:02:23;18.50;90.40
68215;DHT22;55036;52.138;5.236;2023-05-07T09:04:49;18.50;89.10
68215;DHT22;55036;52.138;5.236;2023-05-07T09:07:17;18.50;87.80
68215;DHT22;55036;52.138;5.236;2023-05-07T09:09:44;18.50;89.20
68215;DHT22;55036;52.138;5.236;2023-05-07T09:12:11;18.60;88.40
68215;DHT22;55036;52.138;5.236;2023-05-07T09:14:38;18.70;87.20
68215;DHT22;55036;52.138;5.236;2023-05-07T09:17:05;18.60;87.30
68215;DHT22;55036;52.138;5.236;2023-05-07T09:19:32;18.60;87.80
68215;DHT22;55036;52.138;5.236;2023-05-07T09:22:03;18.80;86.40
68215;DHT22;55036;52.138;5.236;2023-05-07T09:24:30;18.90;86.40
68215;DHT22;55036;52.138;5.236;2023-05-07T09:27:02;18.80;85.70
68215;DHT22;55036;52.138;5.236;2023-05-07T09:29:29;18.70;87.50
68215;DHT22;55036;52.138;5.236;2023-05-07T09:31:56;18.90;86.80
68215;DHT22;55036;52.138;5.236;2023-05-07T09:34:23;19.00;86.40
68215;DHT22;55036;52.138;5.236;2023-05-07T09:36:50;19.10;85.80
68215;DHT22;55036;52.138;5.236;2023-05-07T09:39:16;19.20;85.10
68215;DHT22;55036;52.138;5.236;2023-05-07T09:41:44;19.10;83.10
68215;DHT22;55036;52.138;5.236;2023-05-07T09:44:12;18.90;84.30
68215;DHT22;55036;52.138;5.236;2023-05-07T09:46:42;18.90;85.40
68215;DHT22;55036;52.138;5.236;2023-05-07T09:49:13;19.00;85.60
68215;DHT22;55036;52.138;5.236;2023-05-07T09:51:51;19.20;85.30
68215;DHT22;55036;52.138;5.236;2023-05-07T09:54:18;19.40;85.50
68215;DHT22;55036;52.138;5.236;2023-05-07T09:56:45;19.50;83.40
68215;DHT22;55036;52.138;5.236;2023-05-07T09:59:15;19.40;82.90
68215;DHT22;55036;52.138;5.236;2023-05-07T10:01:43;19.10;83.30
68215;DHT22;55036;52.138;5.236;2023-05-07T10:04:10;19.00;82.70
68215;DHT22;55036;52.138;5.236;2023-05-07T10:06:38;19.20;83.40
68215;DHT22;55036;52.138;5.236;2023-05-07T10:09:05;19.20;80.80
68215;DHT22;55036;52.138;5.236;2023-05-07T10:11:36;19.20;82.90
68215;DHT22;55036;52.138;5.236;2023-05-07T10:14:05;19.20;81.80
68215;DHT22;55036;52.138;5.236;2023-05-07T10:16:35;19.30;80.30
68215;DHT22;55036;52.138;5.236;2023-05-07T10:19:04;19.50;76.30
68215;DHT22;55036;52.138;5.236;2023-05-07T10:21:34;19.50;77.30
68215;DHT22;55036;52.138;5.236;2023-05-07T10:24:19;19.60;79.90
68215;DHT22;55036;52.138;5.236;2023-05-07T10:26:49;19.80;78.30
68215;DHT22;55036;52.138;5.236;2023-05-07T10:35:00;20.00;76.00
68215;DHT22;55036;52.138;5.236;2023-05-07T10:37:29;20.40;76.90
68215;DHT22;55036;52.138;5.236;2023-05-07T10:39:56;20.40;75.50
68215;DHT22;55036;52.138;5.236;2023-05-07T10:42:24;20.60;72.80
68215;DHT22;55036;52.138;5.236;2023-05-07T10:44:51;20.50;72.50
68215;DHT22;55036;52.138;5.236;2023-05-07T10:47:17;20.70;69.70
68215;DHT22;55036;52.138;5.236;2023-05-07T10:52:14;20.70;70.80
68215;DHT22;55036;52.138;5.236;2023-05-07T10:54:42;20.80;72.60
68215;DHT22;55036;52.138;5.236;2023-05-07T10:59:58;21.00;70.00
68215;DHT22;55036;52.138;5.236;2023-05-07T11:05:42;21.00;69.90
68215;DHT22;55036;52.138;5.236;2023-05-07T11:08:09;20.90;68.20
68215;DHT22;55036;52.138;5.236;2023-05-07T11:10:53;21.00;67.70
68215;DHT22;55036;52.138;5.236;2023-05-07T11:13:43;21.00;68.70
68215;DHT22;55036;52.138;5.236;2023-05-07T11:18:51;21.30;67.20
68215;DHT22;55036;52.138;5.236;2023-05-07T11:21:38;21.30;66.90
68215;DHT22;55036;52.138;5.236;2023-05-07T11:24:07;21.50;67.50
68215;DHT22;55036;52.138;5.236;2023-05-07T11:26:45;21.70;67.50
68215;DHT22;55036;52.138;5.236;2023-05-07T11:29:14;21.70;64.30
68215;DHT22;55036;52.138;5.236;2023-05-07T11:31:41;21.60;66.50
68215;DHT22;55036;52.138;5.236;2023-05-07T11:34:09;21.70;66.70
68215;DHT22;55036;52.138;5.236;2023-05-07T11:36:41;21.90;67.50
68215;DHT22;55036;52.138;5.236;2023-05-07T11:39:32;22.10;66.00
68215;DHT22;55036;52.138;5.236;2023-05-07T11:42:02;22.00;65.80
68215;DHT22;55036;52.138;5.236;2023-05-07T11:44:45;22.00;65.20
68215;DHT22;55036;52.138;5.236;2023-05-07T11:47:19;21.90;66.20
68215;DHT22;55036;52.138;5.236;2023-05-07T11:49:48;21.90;65.40
68215;DHT22;55036;52.138;5.236;2023-05-07T11:52:16;22.00;66.30
68215;DHT22;55036;52.138;5.236;2023-05-07T11:54:53;22.00;64.70
68215;DHT22;55036;52.138;5.236;2023-05-07T11:57:24;22.20;66.50
68215;DHT22;55036;52.138;5.236;2023-05-07T11:59:55;22.50;65.40
68215;DHT22;55036;52.138;5.236;2023-05-07T12:02:22;22.80;64.50
68215;DHT22;55036;52.138;5.236;2023-05-07T12:04:48;22.70;62.40
68215;DHT22;55036;52.138;5.236;2023-05-07T12:07:15;22.80;63.60
68215;DHT22;55036;52.138;5.236;2023-05-07T12:09:43;22.70;63.40
68215;DHT22;55036;52.138;5.236;2023-05-07T12:12:10;22.80;63.60
68215;DHT22;55036;52.138;5.236;2023-05-07T12:14:41;22.70;63.70
68215;DHT22;55036;52.138;5.236;2023-05-07T12:17:09;22.80;64.90
68215;DHT22;55036;52.138;5.236;2023-05-07T12:19:36;22.80;62.30
68215;DHT22;55036;52.138;5.236;2023-05-07T12:22:04;22.90;62.50
68215;DHT22;55036;52.138;5.236;2023-05-07T12:24:56;23.00;62.30
68215;DHT22;55036;52.138;5.236;2023-05-07T12:27:23;23.00;60.60
68215;DHT22;55036;52.138;5.236;2023-05-07T12:29:50;22.90;61.90
68215;DHT22;55036;52.138;5.236;2023-05-07T12:32:18;22.80;62.70
68215;DHT22;55036;52.138;5.236;2023-05-07T12:34:46;22.90;61.20
68215;DHT22;55036;52.138;5.236;2023-05-07T12:37:13;22.80;62.00
68215;DHT22;55036;52.138;5.236;2023-05-07T12:40:02;22.70;61.00
68215;DHT22;55036;52.138;5.236;2023-05-07T12:42:35;22.40;60.30
68215;DHT22;55036;52.138;5.236;2023-05-07T12:45:15;22.30;61.30
68215;DHT22;55036;52.138;5.236;2023-05-07T12:47:46;22.30;62.50
68215;DHT22;55036;52.138;5.236;2023-05-07T12:50:14;22.40;62.10
68215;DHT22;55036;52.138;5.236;2023-05-07T12:52:43;22.30;62.40
68215;DHT22;55036;52.138;5.236;2023-05-07T12:55:13;22.30;63.70
68215;DHT22;55036;52.138;5.236;2023-05-07T12:57:48;22.20;62.80
68215;DHT22;55036;52.138;5.236;2023-05-07T13:00:16;22.30;63.10
68215;DHT22;55036;52.138;5.236;2023-05-07T13:02:44;22.30;62.90
68215;DHT22;55036;52.138;5.236;2023-05-07T13:05:11;22.40;62.90
68215;DHT22;55036;52.138;5.236;2023-05-07T13:07:39;22.40;63.30
68215;DHT22;55036;52.138;5.236;2023-05-07T13:10:07;22.30;63.50
68215;DHT22;55036;52.138;5.236;2023-05-07T13:12:34;22.30;62.50
68215;DHT22;55036;52.138;5.236;2023-05-07T13:15:01;22.40;62.60
68215;DHT22;55036;52.138;5.236;2023-05-07T13:17:28;22.40;62.20
68215;DHT22;55036;52.138;5.236;2023-05-07T13:19:55;22.40;62.80
68215;DHT22;55036;52.138;5.236;2023-05-07T13:22:21;22.30;62.80
68215;DHT22;55036;52.138;5.236;2023-05-07T13:24:48;22.20;63.30
68215;DHT22;55036;52.138;5.236;2023-05-07T13:27:14;21.90;64.80
68215;DHT22;55036;52.138;5.236;2023-05-07T13:29:41;21.60;64.80
68215;DHT22;55036;52.138;5.236;2023-05-07T13:32:08;21.60;65.00
68215;DHT22;55036;52.138;5.236;2023-05-07T13:34:35;21.50;65.20
68215;DHT22;55036;52.138;5.236;2023-05-07T13:37:01;21.50;66.20
68215;DHT22;55036;52.138;5.236;2023-05-07T13:39:28;21.50;66.20
68215;DHT22;55036;52.138;5.236;2023-05-07T13:41:55;21.40;66.20
68215;DHT22;55036;52.138;5.236;2023-05-07T13:44:21;21.30;66.90
68215;DHT22;55036;52.138;5.236;2023-05-07T13:46:48;21.40;67.00
68215;DHT22;55036;52.138;5.236;2023-05-07T13:49:15;21.50;67.10
68215;DHT22;55036;52.138;5.236;2023-05-07T13:51:42;21.60;66.60
68215;DHT22;55036;52.138;5.236;2023-05-07T13:54:08;21.70;66.30
68215;DHT22;55036;52.138;5.236;2023-05-07T13:56:35;21.70;65.00
68215;DHT22;55036;52.138;5.236;2023-05-07T13:59:02;21.70;64.60
68215;DHT22;55036;52.138;5.236;2023-05-07T14:01:28;21.70;64.60
68215;DHT22;55036;52.138;5.236;2023-05-07T14:03:56;21.80;64.60
68215;DHT22;55036;52.138;5.236;2023-05-07T14:06:24;21.80;63.10
68215;DHT22;55036;52.138;5.236;2023-05-07T14:08:51;21.70;62.90
68215;DHT22;55036;52.138;5.236;2023-05-07T14:11:17;21.80;63.70
68215;DHT22;55036;52.138;5.236;2023-05-07T14:13:44;21.70;62.50
68215;DHT22;55036;52.138;5.236;2023-05-07T14:16:11;21.60;62.40
68215;DHT22;55036;52.138;5.236;2023-05-07T14:18:38;21.70;63.40
68215;DHT22;55036;52.138;5.236;2023-05-07T14:21:05;21.80;63.10
68215;DHT22;55036;52.138;5.236;2023-05-07T14:23:32;21.90;63.10
68215;DHT22;55036;52.138;5.236;2023-05-07T14:25:59;21.90;62.50
68215;DHT22;55036;52.138;5.236;2023-05-07T14:28:26;22.00;60.40
68215;DHT22;55036;52.138;5.236;2023-05-07T14:30:52;21.90;60.90
68215;DHT22;55036;52.138;5.236;2023-05-07T14:33:19;21.90;61.80
68215;DHT22;55036;52.138;5.236;2023-05-07T14:35:46;21.90;61.40
68215;DHT22;55036;52.138;5.236;2023-05-07T14:38:15;21.80;63.60
68215;DHT22;55036;52.138;5.236;2023-05-07T14:40:42;21.60;64.50
68215;DHT22;55036;52.138;5.236;2023-05-07T14:43:08;21.70;64.80
68215;DHT22;55036;52.138;5.236;2023-05-07T14:45:35;21.60;64.60
68215;DHT22;55036;52.138;5.236;2023-05-07T14:48:02;21.60;65.50
68215;DHT22;55036;52.138;5.236;2023-05-07T14:50:29;21.50;65.50
68215;DHT22;55036;52.138;5.236;2023-05-07T14:52:56;21.40;66.50
68215;DHT22;55036;52.138;5.236;2023-05-07T14:55:22;21.20;67.10
68215;DHT22;55036;52.138;5.236;2023-05-07T14:57:49;21.30;66.90
68215;DHT22;55036;52.138;5.236;2023-05-07T15:00:19;21.20;67.10
68215;DHT22;55036;52.138;5.236;2023-05-07T15:02:45;21.20;67.70
68215;DHT22;55036;52.138;5.236;2023-05-07T15:05:12;21.00;68.30
68215;DHT22;55036;52.138;5.236;2023-05-07T15:07:41;20.80;68.30
68215;DHT22;55036;52.138;5.236;2023-05-07T15:10:08;20.50;68.70
68215;DHT22;55036;52.138;5.236;2023-05-07T15:12:34;20.20;69.90
68215;DHT22;55036;52.138;5.236;2023-05-07T15:15:01;19.90;70.40
68215;DHT22;55036;52.138;5.236;2023-05-07T15:17:28;19.60;72.30
68215;DHT22;55036;52.138;5.236;2023-05-07T15:19:55;19.50;72.00
68215;DHT22;55036;52.138;5.236;2023-05-07T15:22:22;19.40;72.40
68215;DHT22;55036;52.138;5.236;2023-05-07T15:24:48;19.40;72.30
68215;DHT22;55036;52.138;5.236;2023-05-07T15:27:15;19.40;73.20
68215;DHT22;55036;52.138;5.236;2023-05-07T15:29:43;19.30;73.30
68215;DHT22;55036;52.138;5.236;2023-05-07T15:32:10;19.20;72.80
68215;DHT22;55036;52.138;5.236;2023-05-07T15:34:37;19.10;73.60
68215;DHT22;55036;52.138;5.236;2023-05-07T15:37:03;19.10;73.10
68215;DHT22;55036;52.138;5.236;2023-05-07T15:39:30;19.20;73.20
68215;DHT22;55036;52.138;5.236;2023-05-07T15:41:57;19.20;74.20
68215;DHT22;55036;52.138;5.236;2023-05-07T15:44:24;19.10;74.10
68215;DHT22;55036;52.138;5.236;2023-05-07T15:46:54;19.10;74.70
68215;DHT22;55036;52.138;5.236;2023-05-07T15:49:20;19.00;75.00
68215;DHT22;55036;52.138;5.236;2023-05-07T15:51:48;19.00;76.00
68215;DHT22;55036;52.138;5.236;2023-05-07T15:54:15;18.90;75.50
68215;DHT22;55036;52.138;5.236;2023-05-07T15:56:43;18.80;77.10
68215;DHT22;55036;52.138;5.236;2023-05-07T15:59:10;18.50;78.90
68215;DHT22;55036;52.138;5.236;2023-05-07T16:01:38;18.20;79.20
68215;DHT22;55036;52.138;5.236;2023-05-07T16:04:07;18.20;81.00
68215;DHT22;55036;52.138;5.236;2023-05-07T16:06:34;18.10;80.40
68215;DHT22;55036;52.138;5.236;2023-05-07T16:09:01;18.20;81.80
68215;DHT22;55036;52.138;5.236;2023-05-07T16:11:28;18.20;81.30
68215;DHT22;55036;52.138;5.236;2023-05-07T16:13:59;18.30;80.90
68215;DHT22;55036;52.138;5.236;2023-05-07T16:16:32;18.40;81.20
68215;DHT22;55036;52.138;5.236;2023-05-07T16:18:59;18.40;82.20
68215;DHT22;55036;52.138;5.236;2023-05-07T16:21:26;18.30;83.20